Time;durP1;ratioP1;P1;durP2;ratioP2;P2;SDS_P1;SDS_P2;PMS_P1;PMS_P2;Temp;Humidity;BMP_temperature;BMP_pressure;BME280_temperature;BME280_humidity;BME280_pressure;Samples;Min_cycle;Max_cycle;Signal;HPM_P1;HPM_P2
2023/09/25 00:00:34;;;;;;;6.70;4.20;;;;;;;22.14;80.43;99748.03;4841526;29;20114;-46
2023/09/25 00:03:01;;;;;;;6.75;4.40;;;;;;;22.22;79.95;99753.69;4841809;29;20038;-43
2023/09/25 00:05:28;;;;;;;6.57;4.40;;;;;;;22.00;80.65;99753.28;4841841;29;20082;-46
2023/09/25 00:07:54;;;;;;;4.80;4.30;;;;;;;21.92;81.73;99762.00;4841668;29;20041;-46
2023/09/25 00:10:20;;;;;;;5.55;4.40;;;;;;;22.21;79.89;99752.06;4841868;29;20029;-43
2023/09/25 00:12:46;;;;;;;7.07;4.18;;;;;;;22.41;79.06;99755.78;4841757;29;20062;-43
2023/09/25 00:15:12;;;;;;;6.45;4.70;;;;;;;22.31;79.18;99761.25;4841562;29;20113;-46
2023/09/25 00:17:37;;;;;;;6.45;4.78;;;;;;;22.33;78.71;99754.47;4841466;29;20552;-43
2023/09/25 00:20:04;;;;;;;5.10;4.60;;;;;;;22.24;79.72;99761.56;4841814;29;20050;-43
2023/09/25 00:22:30;;;;;;;7.60;5.20;;;;;;;22.23;79.33;99770.75;4841400;29;20042;-41
2023/09/25 00:24:56;;;;;;;6.55;5.47;;;;;;;22.01;81.07;99766.56;4841508;29;20090;-46
2023/09/25 00:27:23;;;;;;;6.50;5.10;;;;;;;21.92;81.29;99764.72;4841579;29;20026;-46
2023/09/25 00:29:48;;;;;;;7.72;5.45;;;;;;;22.06;80.54;99765.72;4841737;29;20051;-44
2023/09/25 00:32:14;;;;;;;6.82;5.30;;;;;;;22.16;80.02;99762.97;4841309;29;20522;-46
2023/09/25 00:34:40;;;;;;;5.95;4.63;;;;;;;22.20;79.86;99752.34;4841612;29;20029;-45
2023/09/25 00:37:05;;;;;;;5.22;4.70;;;;;;;22.04;80.76;99765.97;4841518;29;20426;-43
2023/09/25 00:39:31;;;;;;;5.68;4.72;;;;;;;21.88;81.56;99752.81;4840617;29;20094;-45
2023/09/25 00:41:56;;;;;;;6.78;5.10;;;;;;;21.83;81.71;99750.91;4841314;29;20113;-43
2023/09/25 00:44:22;;;;;;;6.95;5.10;;;;;;;21.97;81.28;99756.53;4841098;29;20045;-43
2023/09/25 00:46:48;;;;;;;5.72;4.72;;;;;;;22.02;80.94;99761.94;4841904;29;20038;-42
2023/09/25 00:49:14;;;;;;;6.15;4.90;;;;;;;22.01;80.91;99760.34;4841874;29;20034;-44
2023/09/25 00:51:41;;;;;;;6.38;4.95;;;;;;;22.02;80.79;99762.75;4841743;29;20056;-45
2023/09/25 00:54:07;;;;;;;7.13;5.13;;;;;;;22.14;80.28;99758.88;4841747;29;20033;-45
2023/09/25 00:56:33;;;;;;;6.10;4.65;;;;;;;22.22;79.65;99761.03;4841921;29;20163;-42
2023/09/25 00:58:58;;;;;;;8.88;5.32;;;;;;;22.10;79.86;99768.66;4841740;29;20108;-41
2023/09/25 01:01:24;;;;;;;6.18;5.25;;;;;;;22.11;80.06;99759.47;4841522;29;20068;-43
2023/09/25 01:03:49;;;;;;;5.60;5.00;;;;;;;21.98;81.15;99760.88;4841483;29;20557;-45
2023/09/25 01:06:15;;;;;;;7.00;5.20;;;;;;;21.97;81.20;99757.38;4841328;29;20030;-42
2023/09/25 01:08:41;;;;;;;7.18;4.93;;;;;;;22.18;80.10;99749.94;4841556;29;20034;-43
2023/09/25 01:11:08;;;;;;;5.35;4.55;;;;;;;22.49;78.26;99766.03;4841502;29;20030;-45
2023/09/25 01:13:33;;;;;;;7.25;4.93;;;;;;;22.38;78.92;99769.91;4841586;29;20090;-42
2023/09/25 01:15:59;;;;;;;5.65;4.70;;;;;;;22.30;79.07;99763.16;4841629;29;20521;-43
2023/09/25 01:18:24;;;;;;;6.40;4.45;;;;;;;22.12;79.85;99777.31;4841155;29;20154;-42
2023/09/25 01:20:50;;;;;;;6.05;4.72;;;;;;;21.99;80.79;99781.44;4841601;29;20026;-43
2023/09/25 01:23:15;;;;;;;5.30;4.43;;;;;;;21.85;81.59;99771.22;4840901;29;20522;-44
2023/09/25 01:25:41;;;;;;;5.97;4.40;;;;;;;22.18;79.84;99778.91;4841069;29;20037;-43
2023/09/25 01:28:06;;;;;;;6.97;4.47;;;;;;;22.21;79.66;99776.47;4841183;29;20026;-46
2023/09/25 01:30:32;;;;;;;4.80;4.25;;;;;;;22.16;79.77;99776.50;4841224;29;20041;-43
2023/09/25 01:32:57;;;;;;;7.45;4.57;;;;;;;22.01;80.28;99766.56;4840848;29;20033;-43
2023/09/25 01:35:25;;;;;;;6.85;4.72;;;;;;;22.11;79.98;99781.94;4840769;29;20081;-42
2023/09/25 01:37:58;;;;;;;6.22;4.60;;;;;;;22.14;79.75;99780.56;4840625;29;20041;-43
2023/09/25 01:40:24;;;;;;;5.43;4.70;;;;;;;22.24;79.11;99772.41;4840941;29;20034;-43
2023/09/25 01:42:50;;;;;;;4.78;4.25;;;;;;;22.24;78.88;99780.53;4840968;29;20029;-43
2023/09/25 01:45:18;;;;;;;7.43;4.90;;;;;;;22.14;79.65;99778.69;4840729;29;20074;-42
2023/09/25 01:47:50;;;;;;;7.20;4.60;;;;;;;22.10;79.52;99777.59;4840812;29;20030;-43
2023/09/25 01:50:27;;;;;;;6.38;4.80;;;;;;;22.25;78.94;99777.53;4841157;29;20074;-44
2023/09/25 01:52:58;;;;;;;6.40;4.53;;;;;;;22.27;78.97;99781.88;4840242;29;20029;-44
2023/09/25 01:55:27;;;;;;;7.00;5.20;;;;;;;21.90;80.02;99772.31;4843096;29;20459;-42
2023/09/25 01:57:52;;;;;;;7.03;4.90;;;;;;;21.98;80.12;99779.84;4857715;29;20403;-42
2023/09/25 02:00:18;;;;;;;6.57;4.80;;;;;;;21.96;80.11;99785.53;4857353;29;20053;-43
2023/09/25 02:02:45;;;;;;;7.18;4.80;;;;;;;22.02;79.73;99780.91;4856830;29;20032;-46
2023/09/25 02:05:11;;;;;;;6.80;4.68;;;;;;;22.15;79.13;99788.41;4856791;29;20447;-45
2023/09/25 02:07:36;;;;;;;7.00;4.97;;;;;;;22.05;79.67;99781.16;4856629;29;20104;-46
2023/09/25 02:10:02;;;;;;;6.70;4.97;;;;;;;22.12;79.16;99788.97;4856857;29;20051;-43
2023/09/25 02:12:27;;;;;;;8.43;5.45;;;;;;;22.19;79.05;99785.97;4856595;29;20025;-46
2023/09/25 02:14:57;;;;;;;8.07;5.85;;;;;;;22.11;79.41;99787.38;4856750;29;20029;-43
2023/09/25 02:17:23;;;;;;;7.75;5.47;;;;;;;21.93;80.12;99793.41;4856619;29;20226;-42
2023/09/25 02:19:48;;;;;;;6.15;5.20;;;;;;;22.06;79.34;99790.09;4856988;29;20109;-43
2023/09/25 02:22:14;;;;;;;5.72;4.80;;;;;;;22.03;79.59;99794.19;4857340;29;20109;-46
2023/09/25 02:24:39;;;;;;;6.90;4.80;;;;;;;22.22;78.77;99797.06;4857433;29;20040;-46
2023/09/25 02:27:05;;;;;;;5.32;4.40;;;;;;;22.16;78.71;99802.78;4857790;29;20071;-46
2023/09/25 02:29:30;;;;;;;5.88;4.40;;;;;;;22.20;78.44;99801.13;4858123;29;20025;-44
2023/09/25 02:31:56;;;;;;;6.18;4.72;;;;;;;22.14;78.95;99799.53;4857887;29;20440;-44
2023/09/25 02:34:21;;;;;;;9.05;4.50;;;;;;;22.00;79.79;99799.34;4857664;29;20038;-43
2023/09/25 02:36:47;;;;;;;7.05;4.75;;;;;;;22.08;78.75;99793.31;4857629;29;20025;-44
2023/09/25 02:39:15;;;;;;;5.43;4.22;;;;;;;22.14;79.17;99807.66;4857511;29;20032;-44
2023/09/25 02:41:41;;;;;;;17.45;11.75;;;;;;;22.26;78.65;99802.78;4857671;29;20108;-46
2023/09/25 02:44:06;;;;;;;13.32;9.68;;;;;;;22.53;77.23;99805.03;4857793;29;20113;-44
2023/09/25 02:46:32;;;;;;;7.25;5.20;;;;;;;22.66;76.10;99811.75;4858135;29;20068;-45
2023/09/25 02:48:58;;;;;;;12.63;7.45;;;;;;;22.71;75.86;99806.25;4858674;29;20139;-43
2023/09/25 02:51:23;;;;;;;6.93;4.30;;;;;;;22.66;76.16;99811.75;4858494;29;20546;-43
2023/09/25 02:53:50;;;;;;;10.20;4.30;;;;;;;22.76;75.21;99811.66;4858627;29;20084;-44
2023/09/25 02:56:16;;;;;;;5.85;4.22;;;;;;;22.55;76.37;99813.69;4858135;29;20414;-44
2023/09/25 02:58:41;;;;;;;4.53;4.13;;;;;;;22.31;77.26;99818.19;4857965;29;20037;-46
2023/09/25 03:01:06;;;;;;;5.70;4.53;;;;;;;22.58;76.09;99817.75;4857870;29;20058;-42
2023/09/25 03:03:32;;;;;;;7.38;4.60;;;;;;;22.31;77.21;99815.47;4860734;29;20033;-42
2023/09/25 03:05:58;;;;;;;6.57;4.00;;;;;;;22.92;74.33;99820.47;4861756;29;20025;-41
2023/09/25 03:08:24;;;;;;;7.18;4.10;;;;;;;23.34;72.39;99818.25;4876025;29;20439;-46
2023/09/25 03:10:49;;;;;;;4.93;4.20;;;;;;;23.39;71.82;99818.19;4861653;29;20085;-45
2023/09/25 03:13:15;;;;;;;5.63;4.30;;;;;;;23.63;70.99;99818.22;4861592;29;20063;-46
2023/09/25 03:15:40;;;;;;;5.80;4.20;;;;;;;23.67;70.33;99821.97;4861458;29;20025;-43
2023/09/25 03:18:06;;;;;;;7.93;4.40;;;;;;;23.53;71.08;99824.59;4861813;29;20025;-44
2023/09/25 03:20:31;;;;;;;5.53;4.03;;;;;;;23.37;71.31;99828.53;4861484;29;20410;-41
2023/09/25 03:22:57;;;;;;;5.30;4.25;;;;;;;23.75;70.10;99829.50;4861662;29;20037;-43
2023/09/25 03:25:23;;;;;;;6.53;4.35;;;;;;;23.40;70.67;99842.34;4861323;29;20117;-44
2023/09/25 03:27:49;;;;;;;6.22;4.15;;;;;;;23.43;70.46;99839.06;4861368;29;20045;-44
2023/09/25 03:30:15;;;;;;;6.40;4.35;;;;;;;23.51;70.58;99843.03;4859577;29;20123;-44
2023/09/25 03:32:42;;;;;;;6.13;4.20;;;;;;;23.62;69.71;99833.69;4860473;29;20038;-43
2023/09/25 03:35:08;;;;;;;6.88;4.30;;;;;;;23.34;70.81;99839.97;4842701;29;20109;-41
2023/09/25 03:37:33;;;;;;;7.70;4.20;;;;;;;23.15;71.40;99831.72;4843195;29;20516;-42
2023/09/25 03:39:59;;;;;;;10.80;5.32;;;;;;;23.32;71.02;99840.28;4842705;29;20029;-48
2023/09/25 03:42:25;;;;;;;8.00;4.38;;;;;;;23.45;70.42;99843.41;4842780;29;20029;-42
2023/09/25 03:44:51;;;;;;;7.05;4.32;;;;;;;23.68;69.76;99839.09;4843018;29;20113;-46
2023/09/25 03:47:18;;;;;;;5.43;4.55;;;;;;;23.40;70.59;99847.78;4842987;29;20030;-45
2023/09/25 03:49:44;;;;;;;7.07;5.05;;;;;;;23.32;70.92;99840.28;4842700;29;20034;-42
2023/09/25 03:52:09;;;;;;;6.80;4.30;;;;;;;23.29;71.13;99832.69;4842717;29;20042;-45
2023/09/25 03:54:34;;;;;;;6.50;4.75;;;;;;;23.29;70.88;99840.84;4842420;29;20109;-44
2023/09/25 03:57:00;;;;;;;6.60;4.53;;;;;;;23.32;70.96;99847.59;4842865;29;20460;-44
2023/09/25 03:59:25;;;;;;;6.72;4.70;;;;;;;23.51;70.09;99843.03;4842324;29;20580;-43
2023/09/25 04:01:51;;;;;;;10.40;5.28;;;;;;;23.47;70.45;99842.00;4841932;29;20037;-41
2023/09/25 04:04:16;;;;;;;4.93;4.40;;;;;;;23.57;69.80;99852.78;4842396;29;20108;-43
2023/09/25 04:06:43;;;;;;;5.30;4.57;;;;;;;23.42;70.60;99858.38;4841899;29;20070;-45
2023/09/25 04:09:09;;;;;;;5.53;4.30;;;;;;;23.06;70.44;99850.53;4842233;29;20044;-44
2023/09/25 04:11:34;;;;;;;5.50;4.07;;;;;;;23.31;69.91;99851.41;4841474;29;20369;-46
2023/09/25 04:14:01;;;;;;;7.30;4.38;;;;;;;23.28;70.83;99854.69;4840268;29;20022;-42
2023/09/25 04:16:28;;;;;;;8.43;4.40;;;;;;;23.26;71.15;99843.31;4841010;29;20376;-43
2023/09/25 04:18:54;;;;;;;102.57;63.88;;;;;;;23.11;71.42;99853.19;4841368;29;20033;-44
2023/09/25 04:21:21;;;;;;;9.18;5.45;;;;;;;23.43;70.20;99851.81;4841903;29;20025;-44
2023/09/25 04:23:47;;;;;;;7.80;4.55;;;;;;;23.62;69.26;99857.34;4842216;29;20086;-43
2023/09/25 04:26:13;;;;;;;7.32;4.82;;;;;;;23.81;68.76;99860.97;4841792;29;20041;-43
2023/09/25 04:28:40;;;;;;;7.55;4.70;;;;;;;23.71;68.81;99862.97;4841437;29;20090;-42
2023/09/25 04:31:06;;;;;;;6.43;4.65;;;;;;;23.80;68.65;99858.56;4841708;29;20145;-44
2023/09/25 04:33:32;;;;;;;8.48;4.90;;;;;;;23.47;69.81;99861.00;4841213;29;20034;-43
2023/09/25 04:35:59;;;;;;;7.72;4.97;;;;;;;23.52;69.57;99877.25;4842208;29;20086;-41
2023/09/25 04:38:28;;;;;;;10.07;5.00;;;;;;;23.65;69.21;99873.06;4842072;29;20403;-41
2023/09/25 04:40:54;;;;;;;6.35;5.10;;;;;;;23.70;69.03;99872.19;4842125;29;20086;-41
2023/09/25 04:43:20;;;;;;;8.68;4.90;;;;;;;23.79;68.89;99874.03;4842169;29;20026;-43
2023/09/25 04:45:46;;;;;;;7.30;4.70;;;;;;;23.53;69.47;99878.91;4841514;29;20379;-42
2023/09/25 04:48:13;;;;;;;9.20;4.85;;;;;;;23.05;71.57;99873.31;4841835;29;20090;-42
2023/09/25 04:50:40;;;;;;;7.57;5.10;;;;;;;22.98;72.22;99876.34;4841093;29;20028;-43
2023/09/25 04:53:08;;;;;;;6.53;4.53;;;;;;;23.32;70.92;99885.59;4841280;29;20052;-43
2023/09/25 04:55:34;;;;;;;8.13;5.00;;;;;;;23.71;69.37;99887.41;4840384;29;20034;-43
2023/09/25 04:57:59;;;;;;;7.57;4.80;;;;;;;23.22;70.74;99878.34;4855592;29;20033;-43
2023/09/25 05:00:26;;;;;;;7.47;5.10;;;;;;;23.34;70.94;99876.09;4858553;29;20511;-42
2023/09/25 05:02:54;;;;;;;5.90;4.78;;;;;;;23.65;69.54;99878.50;4859340;29;20073;-43
2023/09/25 05:05:20;;;;;;;10.60;4.68;;;;;;;23.67;69.59;99875.50;4859339;29;20036;-44
2023/09/25 05:07:50;;;;;;;6.47;4.78;;;;;;;23.78;69.00;99875.13;4857337;29;20025;-44
2023/09/25 05:10:18;;;;;;;6.72;4.63;;;;;;;23.66;69.59;99880.13;4858839;29;20081;-42
2023/09/25 05:12:44;;;;;;;65.45;44.35;;;;;;;23.43;70.54;99882.50;4858462;29;20026;-47
2023/09/25 05:15:11;;;;;;;15.60;10.75;;;;;;;23.41;70.88;99894.75;4859248;29;20029;-42
2023/09/25 05:17:40;;;;;;;7.57;4.95;;;;;;;23.43;70.17;99890.66;4859113;29;20048;-42
2023/09/25 05:20:11;;;;;;;16.15;11.57;;;;;;;23.65;69.85;99894.00;4859404;29;20192;-44
2023/09/25 05:22:43;;;;;;;49.63;33.47;;;;;;;23.77;69.04;99889.78;4858833;29;20033;-45
2023/09/25 05:25:10;;;;;;;10.15;6.07;;;;;;;23.79;68.70;99890.31;4858784;29;20119;-45
2023/09/25 05:27:40;;;;;;;10.20;5.20;;;;;;;23.64;69.27;99889.66;4859068;29;20036;-44
2023/09/25 05:30:11;;;;;;;9.95;5.93;;;;;;;23.55;69.86;99895.72;4859038;29;20082;-44
2023/09/25 05:32:38;;;;;;;12.13;5.82;;;;;;;23.48;69.72;99892.53;4858407;29;20120;-43
2023/09/25 05:35:04;;;;;;;11.40;5.72;;;;;;;23.30;70.40;99902.16;4842143;29;20037;-44
2023/09/25 05:37:30;;;;;;;8.95;6.25;;;;;;;23.34;69.77;99908.66;4840137;29;20483;-45
2023/09/25 05:39:55;;;;;;;11.27;7.20;;;;;;;22.71;72.56;99908.53;4840355;29;20085;-45
2023/09/25 05:42:21;;;;;;;9.50;6.47;;;;;;;22.61;73.04;99910.19;4840157;29;20029;-45
2023/09/25 05:44:46;;;;;;;10.77;5.85;;;;;;;22.64;72.19;99915.06;4840185;29;20029;-43
2023/09/25 05:47:12;;;;;;;9.63;6.45;;;;;;;22.43;73.07;99919.78;4840114;29;20029;-43
2023/09/25 05:49:37;;;;;;;7.50;5.70;;;;;;;22.50;72.80;99922.19;4840040;29;20034;-44
2023/09/25 05:52:03;;;;;;;12.68;6.85;;;;;;;22.56;72.77;99929.22;4839850;29;20033;-45
2023/09/25 05:54:29;;;;;;;18.67;9.57;;;;;;;22.83;71.58;99911.72;4840145;29;20030;-44
2023/09/25 05:56:54;;;;;;;24.48;9.73;;;;;;;22.97;71.21;99923.56;4840693;29;20136;-42
2023/09/25 05:59:20;;;;;;;10.25;6.95;;;;;;;22.99;70.85;99915.13;4840395;29;20030;-42
2023/09/25 06:01:45;;;;;;;15.13;7.65;;;;;;;23.15;70.35;99921.28;4840074;29;20074;-44
2023/09/25 06:04:11;;;;;;;20.83;9.77;;;;;;;23.37;69.66;99927.09;4839889;29;20102;-44
2023/09/25 06:06:36;;;;;;;8.38;5.78;;;;;;;23.20;69.64;99927.50;4839121;29;20483;-45
2023/09/25 06:09:02;;;;;;;8.35;5.75;;;;;;;22.99;70.41;99928.69;4839050;29;20488;-44
2023/09/25 06:11:28;;;;;;;10.38;6.13;;;;;;;22.58;72.19;99935.19;4839423;29;20057;-46
2023/09/25 06:13:54;;;;;;;10.80;5.80;;;;;;;22.39;73.81;99939.56;4838975;29;20062;-46
2023/09/25 06:16:20;;;;;;;7.40;5.80;;;;;;;22.59;72.42;99947.63;4839200;29;20034;-43
2023/09/25 06:18:46;;;;;;;9.48;6.13;;;;;;;22.81;72.09;99935.59;4840146;29;20030;-43
2023/09/25 06:21:13;;;;;;;8.77;6.40;;;;;;;22.74;72.38;99941.31;4839202;29;20026;-44
2023/09/25 06:23:42;;;;;;;11.75;5.97;;;;;;;22.78;71.44;99942.38;4838737;29;20037;-45
2023/09/25 06:26:09;;;;;;;15.15;8.18;;;;;;;23.07;70.90;99944.41;4838465;29;20477;-43
2023/09/25 06:28:34;;;;;;;11.73;7.10;;;;;;;23.65;68.70;99951.03;4838513;29;20062;-44
2023/09/25 06:31:00;;;;;;;10.98;6.70;;;;;;;23.90;67.53;99947.31;4838421;29;20034;-44
2023/09/25 06:33:26;;;;;;;12.30;6.30;;;;;;;24.19;66.32;99956.22;4838372;29;20026;-41
2023/09/25 06:35:52;;;;;;;12.23;5.90;;;;;;;24.44;65.52;99943.41;4838736;29;20065;-43
2023/09/25 06:38:18;;;;;;;7.32;5.03;;;;;;;25.09;63.96;99959.19;4840723;29;20038;-43
2023/09/25 06:40:45;;;;;;;6.38;4.55;;;;;;;24.83;64.12;99960.63;4842254;29;20029;-44
2023/09/25 06:43:12;;;;;;;8.80;4.60;;;;;;;25.42;62.21;99969.31;4841743;29;20517;-41
2023/09/25 06:45:38;;;;;;;10.20;5.07;;;;;;;25.46;62.15;99965.72;4841883;29;20030;-44
2023/09/25 06:48:04;;;;;;;9.70;5.15;;;;;;;25.34;62.10;99955.28;4842102;29;20112;-44
2023/09/25 06:50:30;;;;;;;8.18;4.72;;;;;;;26.12;60.06;99961.03;4843640;29;20103;-43
2023/09/25 06:52:56;;;;;;;4.63;4.10;;;;;;;26.04;59.36;99956.28;4843269;29;20046;-41
2023/09/25 06:55:22;;;;;;;9.88;5.65;;;;;;;26.11;59.12;99964.88;4843395;29;20037;-42
2023/09/25 06:57:47;;;;;;;4.70;3.90;;;;;;;26.37;58.35;99958.09;4843119;29;20033;-43
2023/09/25 07:00:13;;;;;;;5.90;4.10;;;;;;;26.78;56.69;99960.81;4842679;29;20136;-45
2023/09/25 07:02:39;;;;;;;8.20;4.57;;;;;;;26.96;56.54;99952.78;4842326;29;20068;-43
2023/09/25 07:05:05;;;;;;;10.75;4.70;;;;;;;27.18;56.10;99955.53;4842260;29;20061;-44
2023/09/25 07:07:30;;;;;;;9.00;3.92;;;;;;;27.40;54.33;99959.44;4842494;29;20034;-42
2023/09/25 07:09:56;;;;;;;7.93;4.32;;;;;;;27.54;53.71;99965.63;4842539;29;20351;-44
2023/09/25 07:12:22;;;;;;;4.28;3.67;;;;;;;28.10;52.74;99962.56;4841854;29;20038;-42
2023/09/25 07:14:58;;;;;;;7.00;4.05;;;;;;;28.44;51.71;99951.75;4842903;29;20032;-46
2023/09/25 07:17:24;;;;;;;7.47;5.68;;;;;;;28.86;50.34;99962.31;4843081;29;20041;-46
2023/09/25 07:19:51;;;;;;;5.38;4.10;;;;;;;28.74;50.95;99953.94;4842805;29;20065;-47
2023/09/25 07:22:17;;;;;;;9.70;4.30;;;;;;;28.23;51.66;99958.91;4842277;29;20029;-43
2023/09/25 07:24:42;;;;;;;6.25;3.97;;;;;;;28.95;49.28;99957.66;4841431;29;20105;-43
2023/09/25 07:27:08;;;;;;;6.18;3.80;;;;;;;29.27;48.93;99961.06;4841577;29;20026;-43
2023/09/25 07:29:33;;;;;;;8.50;4.40;;;;;;;29.14;48.69;99975.75;4841731;29;20104;-44
2023/09/25 07:31:58;;;;;;;7.15;4.40;;;;;;;27.88;51.28;99976.00;4841969;29;20040;-43
2023/09/25 07:34:24;;;;;;;6.72;4.40;;;;;;;27.46;52.83;99974.59;4842357;29;20030;-43
2023/09/25 07:36:49;;;;;;;6.13;4.13;;;;;;;28.04;51.76;99973.66;4842518;29;20080;-44
2023/09/25 07:39:18;;;;;;;6.88;4.20;;;;;;;28.51;50.91;99972.38;4842355;29;20490;-42
2023/09/25 07:41:45;;;;;;;6.15;4.10;;;;;;;28.77;50.19;99962.31;4842250;29;20033;-43
2023/09/25 07:44:12;;;;;;;7.10;4.40;;;;;;;28.90;48.83;99968.78;4841991;29;20105;-42
2023/09/25 07:46:39;;;;;;;6.13;4.07;;;;;;;28.82;48.80;99967.63;4841507;29;20054;-43
2023/09/25 07:49:05;;;;;;;6.55;4.13;;;;;;;28.03;49.50;99974.78;4841357;29;20048;-41
2023/09/25 07:51:32;;;;;;;7.15;4.07;;;;;;;28.17;49.49;99979.34;4841395;29;20535;-44
2023/09/25 07:53:58;;;;;;;5.68;3.80;;;;;;;28.17;48.76;99976.59;4841659;29;20522;-45
2023/09/25 07:56:24;;;;;;;5.30;3.80;;;;;;;28.53;47.93;99978.38;4842185;29;20119;-45
2023/09/25 07:58:50;;;;;;;6.82;3.58;;;;;;;28.39;47.77;99975.72;4842386;29;20034;-43
2023/09/25 08:01:15;;;;;;;7.20;4.05;;;;;;;28.35;47.72;99970.09;4841867;29;20066;-43
2023/09/25 08:03:41;;;;;;;6.68;4.38;;;;;;;28.30;48.09;99958.47;4842139;29;20026;-43
2023/09/25 08:06:07;;;;;;;5.05;3.92;;;;;;;28.84;46.44;99981.81;4842499;29;20026;-42
2023/09/25 08:08:34;;;;;;;6.20;4.15;;;;;;;28.82;46.44;99967.63;4841859;29;20423;-41
2023/09/25 08:10:59;;;;;;;8.82;4.38;;;;;;;29.30;46.01;99965.91;4841586;29;20025;-42
2023/09/25 08:13:26;;;;;;;6.95;3.88;;;;;;;29.53;44.59;99954.72;4841988;29;20029;-43
2023/09/25 08:15:51;;;;;;;4.85;3.78;;;;;;;29.62;44.57;99959.09;4841850;29;20423;-45
2023/09/25 08:18:16;;;;;;;7.75;4.03;;;;;;;28.82;46.21;99969.56;4841409;29;20026;-42
2023/09/25 08:20:42;;;;;;;5.85;3.70;;;;;;;29.06;45.66;99958.16;4841917;29;20034;-42
2023/09/25 08:23:09;;;;;;;5.80;4.10;;;;;;;29.02;45.83;99962.66;4841371;29;20506;-43
2023/09/25 08:25:35;;;;;;;4.15;3.70;;;;;;;29.24;45.04;99962.53;4841282;29;20026;-45
2023/09/25 08:28:01;;;;;;;7.90;4.00;;;;;;;29.16;45.00;99963.31;4841038;29;20032;-41
2023/09/25 08:30:26;;;;;;;5.70;3.75;;;;;;;29.13;45.04;99961.25;4840966;29;20037;-45
2023/09/25 08:32:53;;;;;;;5.53;4.05;;;;;;;29.04;45.06;99963.16;4841012;29;20488;-42
2023/09/25 08:35:19;;;;;;;5.50;4.00;;;;;;;29.03;45.65;99959.59;4841416;29;20040;-46
2023/09/25 08:37:45;;;;;;;5.25;4.10;;;;;;;28.96;45.45;99956.53;4840937;29;20030;-42
2023/09/25 08:40:10;;;;;;;5.40;3.97;;;;;;;28.72;46.37;99959.72;4841119;29;20052;-44
2023/09/25 08:42:39;;;;;;;8.15;3.95;;;;;;;29.19;45.40;99953.66;4841369;29;20076;-43
2023/09/25 08:45:05;;;;;;;8.77;4.20;;;;;;;29.49;45.36;99949.09;4841389;29;20038;-44
2023/09/25 08:47:32;;;;;;;5.85;4.20;;;;;;;29.62;44.72;99941.81;4840929;29;20057;-44
2023/09/25 08:49:58;;;;;;;8.18;4.60;;;;;;;29.24;44.86;99932.38;4840825;29;20555;-43
2023/09/25 08:52:23;;;;;;;6.00;4.45;;;;;;;28.96;45.70;99944.75;4840301;29;20121;-43
2023/09/25 08:54:50;;;;;;;4.97;4.30;;;;;;;29.59;45.01;99946.03;4840436;29;20072;-42
2023/09/25 08:57:19;;;;;;;8.73;5.50;;;;;;;30.02;44.52;99953.34;4840202;29;20110;-43
2023/09/25 08:59:46;;;;;;;6.05;4.40;;;;;;;30.63;42.38;99943.97;4839606;29;20583;-44
2023/09/25 09:02:13;;;;;;;9.27;5.57;;;;;;;30.90;40.96;99941.88;4840387;29;20116;-43
2023/09/25 09:04:38;;;;;;;8.43;5.50;;;;;;;30.70;41.04;99946.22;4840400;29;20506;-43
2023/09/25 09:07:05;;;;;;;10.15;5.38;;;;;;;30.38;41.80;99948.50;4840735;29;20026;-44
2023/09/25 09:09:31;;;;;;;11.68;6.97;;;;;;;29.94;42.41;99945.94;4840682;29;20022;-46
2023/09/25 09:11:57;;;;;;;12.85;6.85;;;;;;;30.11;42.80;99939.56;4840685;29;20029;-44
2023/09/25 09:14:43;;;;;;;11.30;6.28;;;;;;;30.43;42.08;99940.09;4840509;29;20082;-42
2023/09/25 09:17:10;;;;;;;10.20;6.10;;;;;;;30.42;42.65;99932.19;4840134;29;20114;-43
2023/09/25 09:19:39;;;;;;;8.00;5.95;;;;;;;31.21;40.72;99932.44;4840236;29;20291;-42
2023/09/25 09:22:06;;;;;;;8.93;6.00;;;;;;;31.75;39.88;99930.41;4840496;29;20034;-42
2023/09/25 09:24:38;;;;;;;7.85;5.88;;;;;;;32.00;39.21;99924.94;4840100;29;20038;-44
2023/09/25 09:27:09;;;;;;;9.15;6.20;;;;;;;31.45;39.71;99929.72;4840889;29;20093;-43
2023/09/25 09:29:42;;;;;;;8.65;5.65;;;;;;;31.28;39.38;99930.75;4840089;29;20030;-46
2023/09/25 09:32:08;;;;;;;6.78;5.35;;;;;;;31.02;40.14;99932.91;4840605;29;20033;-42
2023/09/25 09:34:35;;;;;;;7.53;5.43;;;;;;;30.45;40.62;99937.81;4840372;29;20463;-45
2023/09/25 09:37:01;;;;;;;8.18;5.25;;;;;;;30.09;41.38;99930.88;4839915;29;20116;-51
2023/09/25 09:39:34;;;;;;;7.25;5.05;;;;;;;30.53;40.54;99930.66;4840225;29;20502;-43
2023/09/25 09:42:03;;;;;;;7.22;5.30;;;;;;;30.63;40.74;99930.25;4839617;29;20033;-43
2023/09/25 09:44:29;;;;;;;6.80;5.40;;;;;;;30.85;40.13;99923.63;4839868;29;20128;-41
2023/09/25 09:46:55;;;;;;;6.03;4.95;;;;;;;30.30;40.11;99917.19;4839700;29;20439;-45
2023/09/25 09:49:23;;;;;;;5.75;4.95;;;;;;;29.74;41.92;99911.81;4840040;29;20085;-46
2023/09/25 09:51:50;;;;;;;7.25;4.97;;;;;;;30.23;40.42;99911.41;4840759;29;20053;-43
2023/09/25 09:54:21;;;;;;;6.20;5.20;;;;;;;29.75;41.37;99907.94;4839824;29;20030;-42
2023/09/25 09:56:50;;;;;;;11.20;6.93;;;;;;;29.79;41.43;99916.31;4839888;29;20029;-43
2023/09/25 09:59:16;;;;;;;;;;;;;;;30.21;40.51;99908.22;4840713;29;20037;-44
2023/09/25 10:01:45;;;;;;;5.68;4.88;;;;;;;30.46;39.89;99911.16;4839564;29;19932;-42
2023/09/25 10:04:11;;;;;;;7.60;4.70;;;;;;;30.64;39.51;99901.66;4839948;29;20025;-43
2023/09/25 10:07:04;;;;;;;8.52;4.55;;;;;;;29.97;41.09;99909.63;4839632;29;20026;-44
2023/09/25 10:09:30;;;;;;;7.80;4.97;;;;;;;29.11;42.42;99907.84;4840299;29;20094;-46
2023/09/25 10:11:56;;;;;;;6.65;4.82;;;;;;;28.85;43.73;99905.94;4839148;29;20551;-42
2023/09/25 10:14:23;;;;;;;7.80;5.10;;;;;;;29.46;42.10;99902.38;4839860;29;20029;-44
2023/09/25 10:17:07;;;;;;;9.68;5.53;;;;;;;29.66;42.32;99887.13;4840005;29;20033;-46
2023/09/25 10:19:53;;;;;;;7.38;4.97;;;;;;;30.01;40.89;99893.31;4839581;29;20052;-46
2023/09/25 10:22:26;;;;;;;6.25;4.68;;;;;;;29.97;41.88;99895.13;4839899;29;20041;-44
2023/09/25 10:25:11;;;;;;;8.55;5.20;;;;;;;30.52;40.88;99888.69;4839284;29;20097;-43
2023/09/25 10:27:37;;;;;;;5.68;4.07;;;;;;;30.68;39.11;99888.88;4838838;29;20116;-45
2023/09/25 10:30:15;;;;;;;6.63;4.20;;;;;;;30.63;39.25;99880.84;4839030;29;20511;-48
2023/09/25 10:32:49;;;;;;;7.85;4.50;;;;;;;30.28;40.10;99867.31;4839774;29;20034;-48
2023/09/25 10:35:43;;;;;;;7.43;4.05;;;;;;;29.26;41.81;99871.75;4839918;29;20045;-44
2023/09/25 10:38:21;;;;;;;6.65;4.50;;;;;;;29.31;42.12;99876.28;4839605;29;20125;-44
2023/09/25 10:40:49;;;;;;;7.13;5.13;;;;;;;29.68;41.77;99879.38;4839494;29;20396;-45
2023/09/25 10:43:16;;;;;;;8.05;4.70;;;;;;;30.46;40.65;99868.03;4838856;29;20479;-45
2023/09/25 10:45:42;;;;;;;6.25;4.70;;;;;;;31.38;38.94;99863.53;4839054;29;20022;-43
2023/09/25 10:48:07;;;;;;;6.57;4.68;;;;;;;31.51;38.35;99853.38;4839240;29;20472;-45
2023/09/25 10:50:33;;;;;;;9.82;4.65;;;;;;;32.05;37.50;99863.41;4839387;29;20033;-44
2023/09/25 10:52:59;;;;;;;6.75;4.50;;;;;;;31.52;37.63;99858.53;4839459;29;20041;-44
2023/09/25 10:55:24;;;;;;;5.38;4.40;;;;;;;31.90;36.92;99851.09;4838962;29;20125;-43
2023/09/25 10:57:51;;;;;;;5.63;4.10;;;;;;;31.23;37.29;99847.69;4839345;29;20100;-43
2023/09/25 11:00:18;;;;;;;6.20;4.15;;;;;;;31.07;37.62;99847.50;4839492;29;20089;-44
2023/09/25 11:02:44;;;;;;;6.80;4.05;;;;;;;31.41;36.93;99840.03;4839142;29;20036;-46
2023/09/25 11:05:10;;;;;;;8.95;4.05;;;;;;;30.94;37.93;99854.94;4838536;29;20130;-42
2023/09/25 11:07:36;;;;;;;5.72;4.10;;;;;;;30.36;38.75;99849.22;4838513;29;20464;-42
2023/09/25 11:10:03;;;;;;;6.30;4.25;;;;;;;30.20;38.94;99847.03;4839312;29;20037;-43
2023/09/25 11:12:30;;;;;;;9.30;4.30;;;;;;;30.30;39.30;99832.13;4839462;29;20166;-47
2023/09/25 11:14:57;;;;;;;5.88;4.00;;;;;;;30.01;39.71;99830.22;4838818;29;20026;-46
2023/09/25 11:17:22;;;;;;;9.18;3.88;;;;;;;30.21;39.19;99834.13;4839100;29;20038;-45
2023/09/25 11:19:51;;;;;;;6.15;4.20;;;;;;;30.26;39.21;99833.94;4838554;29;20410;-44
2023/09/25 11:22:21;;;;;;;;;;;;;;;30.00;40.04;99834.88;4839396;29;20030;-43
2023/09/25 11:24:58;;;;;;;6.38;4.00;;;;;;;29.42;40.70;99820.00;4841342;29;19912;-43
2023/09/25 11:27:23;;;;;;;5.38;4.38;;;;;;;29.47;40.84;99816.25;4842558;29;20034;-47
2023/09/25 11:29:52;;;;;;;8.38;4.32;;;;;;;29.20;40.70;99815.53;4842922;29;20116;-43